createdAt,value
2022-08-19T00:04:00.969Z,95736.63
2022-08-19T00:09:06.394Z,95734.59
2022-08-19T00:14:12.394Z,95739.66
2022-08-19T00:19:16.009Z,95732.75
2022-08-19T00:24:18.794Z,95732.19
2022-08-19T00:29:23.869Z,95729.56
2022-08-19T00:34:28.861Z,95733.44
2022-08-19T00:39:31.879Z,95730.97
2022-08-19T00:44:36.488Z,95724.91
2022-08-19T00:49:42.203Z,95727.75
2022-08-19T00:54:47.022Z,95720.44
2022-08-19T01:00:02.704Z,95731.88
2022-08-19T01:05:11.253Z,95735.72
2022-08-19T01:10:16.807Z,95727.00
2022-08-19T01:15:25.450Z,95724.72
2022-08-19T01:20:28.309Z,95718.41
2022-08-19T01:25:37.969Z,95723.47
2022-08-19T01:30:44.376Z,95728.16
2022-08-19T01:35:54.020Z,95734.84
2022-08-19T01:40:58.318Z,95744.03
2022-08-19T01:46:01.630Z,95757.06
2022-08-19T01:51:04.809Z,95767.63
2022-08-19T01:56:09.239Z,95780.66
2022-08-19T02:01:12.364Z,95794.88
2022-08-19T02:06:15.510Z,95806.66
2022-08-19T02:11:27.450Z,95820.91
2022-08-19T02:16:31.279Z,95814.78
2022-08-19T02:21:34.653Z,95807.88
2022-08-19T02:26:38.838Z,95798.94
2022-08-19T02:31:42.494Z,95793.66
2022-08-19T02:36:45.311Z,95803.81
2022-08-19T02:41:55.801Z,95812.75
2022-08-19T02:46:58.617Z,95808.25
2022-08-19T02:52:01.426Z,95813.06
2022-08-19T02:57:07.027Z,95808.97
2022-08-19T03:02:09.814Z,95807.97
2022-08-19T03:07:15.829Z,95819.91
2022-08-19T03:12:19.982Z,95811.34
2022-08-19T03:17:22.868Z,95823.94
2022-08-19T03:22:26.357Z,95822.13
2022-08-19T03:27:34.434Z,95835.75
2022-08-19T03:32:37.527Z,95835.09
2022-08-19T03:37:48.283Z,95833.53
2022-08-19T03:42:52.445Z,95844.09
2022-08-19T03:47:55.506Z,95843.63
2022-08-19T03:52:58.272Z,95847.69
2022-08-19T03:58:02.428Z,95848.91
2022-08-19T04:03:05.273Z,95853.38
2022-08-19T04:08:13.271Z,95865.75
2022-08-19T04:13:19.125Z,95862.22
2022-08-19T04:18:21.874Z,95869.34
2022-08-19T04:23:25.436Z,95865.44
2022-08-19T04:28:29.984Z,95864.09
2022-08-19T04:33:34.400Z,95875.19
2022-08-19T04:38:37.221Z,95878.06
2022-08-19T04:43:41.329Z,95892.72
2022-08-19T04:48:49.385Z,95904.34
2022-08-19T04:53:53.327Z,95921.41
2022-08-19T04:58:58.853Z,95919.97
2022-08-19T05:04:02.552Z,95926.69
2022-08-19T05:09:07.365Z,95926.69
2022-08-19T05:14:13.374Z,95933.16
2022-08-19T05:19:42.087Z,95937.63
2022-08-19T05:25:09.207Z,95936.78
2022-08-19T05:30:10.253Z,95945.34
2022-08-19T05:35:13.311Z,95952.22
2022-08-19T05:40:16.185Z,95953.88
2022-08-19T05:45:22.500Z,95953.25
2022-08-19T05:50:26.298Z,95948.50
2022-08-19T05:55:29.077Z,95951.63
2022-08-19T06:00:33.272Z,95963.81
2022-08-19T06:05:42.335Z,95979.09
2022-08-19T06:10:52.437Z,95991.75
2022-08-19T06:15:56.593Z,95993.44
2022-08-19T06:20:59.398Z,96003.13
2022-08-19T06:26:02.176Z,96011.88
2022-08-19T06:31:09.852Z,96004.97
2022-08-19T06:36:19.789Z,96015.75
2022-08-19T06:41:22.551Z,96025.06
2022-08-19T06:46:27.361Z,96023.84
2022-08-19T06:56:35.726Z,96046.19
2022-08-19T07:01:42.799Z,96050.50
2022-08-19T07:06:46.080Z,96067.44
2022-08-19T07:11:58.442Z,96060.56
2022-08-19T07:17:04.142Z,96071.56
2022-08-19T07:22:08.865Z,96088.19
2022-08-19T07:27:16.993Z,96070.31
2022-08-19T07:32:21.129Z,96076.72
2022-08-19T07:37:23.923Z,96083.97
2022-08-19T07:42:27.649Z,96082.22
2022-08-19T07:47:49.716Z,96076.47
2022-08-19T07:52:53.844Z,96075.22
2022-08-19T07:57:56.726Z,96073.44
2022-08-19T08:03:00.872Z,96066.41
2022-08-19T08:08:21.129Z,96063.34
2022-08-19T08:13:30.581Z,96078.22
2022-08-19T08:18:42.309Z,96085.25
2022-08-19T08:23:45.149Z,96084.16
2022-08-19T08:28:49.515Z,96092.44
2022-08-19T08:33:53.724Z,96100.06
2022-08-19T08:44:01.002Z,96102.78
2022-08-19T08:49:26.127Z,96110.06
2022-08-19T08:54:34.934Z,96119.47
2022-08-19T08:59:42.322Z,96108.03
2022-08-19T09:04:46.829Z,96108.09
2022-08-19T09:09:56.183Z,96110.97
2022-08-19T09:15:02.329Z,96111.81
2022-08-19T09:20:15.986Z,96116.72
2022-08-19T09:25:24.762Z,96112.47
2022-08-19T09:30:32.455Z,96116.75
2022-08-19T09:35:50.207Z,96124.47
2022-08-19T09:40:56.578Z,96118.34
2022-08-19T09:46:02.129Z,96128.75
2022-08-19T09:51:08.948Z,96139.16
2022-08-19T09:56:15.721Z,96139.75
2022-08-19T10:01:25.820Z,96144.66
2022-08-19T10:06:42.009Z,96144.44
2022-08-19T10:11:54.699Z,96139.16
2022-08-19T10:16:59.359Z,96145.66
2022-08-19T10:22:05.293Z,96145.19
2022-08-19T10:27:14.180Z,96154.41
2022-08-19T10:32:18.908Z,96154.22
2022-08-19T10:37:49.794Z,96170.53
2022-08-19T10:43:00.476Z,96171.31
2022-08-19T10:48:03.244Z,96170.94
2022-08-19T10:53:10.415Z,96171.34
2022-08-19T10:58:14.947Z,96176.78
2022-08-19T11:03:17.738Z,96172.69
2022-08-19T11:08:23.715Z,96170.31
2022-08-19T11:13:27.290Z,96170.63
2022-08-19T11:18:30.409Z,96170.09
2022-08-19T11:23:34.653Z,96171.97
2022-08-19T11:28:38.317Z,96163.41
2022-08-19T11:33:41.313Z,96158.94
2022-08-19T11:38:46.059Z,96164.25
2022-08-19T11:43:48.931Z,96166.31
2022-08-19T11:48:51.779Z,96174.41
2022-08-19T11:53:57.417Z,96178.25
2022-08-19T11:59:00.569Z,96181.75
2022-08-19T12:04:05.316Z,96171.88
2022-08-19T12:09:11.797Z,96174.69
2022-08-19T12:14:15.283Z,96167.28
2022-08-19T12:19:21.966Z,96182.06
2022-08-19T12:24:26.863Z,96173.56
2022-08-19T12:29:30.473Z,96162.63
2022-08-19T12:34:34.223Z,96159.16
2022-08-19T12:39:40.531Z,96153.69
2022-08-19T12:44:45.572Z,96157.50
2022-08-19T12:49:55.158Z,96176.22
2022-08-19T12:54:59.997Z,96181.66
2022-08-19T13:00:05.519Z,96180.91
2022-08-19T13:05:10.928Z,96181.34
2022-08-19T13:10:17.953Z,96180.06
2022-08-19T13:15:24.113Z,96181.34
2022-08-19T13:20:27.532Z,96185.75
2022-08-19T13:25:32.172Z,96186.88
2022-08-19T13:30:52.323Z,96186.25
2022-08-19T13:36:01.453Z,96186.72
2022-08-19T13:41:13.261Z,96172.03
2022-08-19T13:46:17.845Z,96177.28
2022-08-19T13:51:20.843Z,96180.75
2022-08-19T13:56:26.497Z,96172.06
2022-08-19T14:01:31.189Z,96179.56
2022-08-19T14:06:34.118Z,96181.41
2022-08-19T14:11:39.085Z,96186.88
2022-08-19T14:16:41.895Z,96194.63
2022-08-19T14:21:44.825Z,96186.53
2022-08-19T14:26:49.003Z,96193.78
2022-08-19T14:31:51.793Z,96186.72
2022-08-19T14:36:54.737Z,96188.66
2022-08-19T14:42:00.092Z,96195.28
2022-08-19T14:47:03.561Z,96182.53
2022-08-19T14:52:07.626Z,96186.19
2022-08-19T14:57:13.608Z,96194.31
2022-08-19T15:02:33.765Z,96197.81
2022-08-19T15:07:38.151Z,96193.59
2022-08-19T15:12:43.444Z,96202.84
2022-08-19T15:17:47.408Z,96221.31
2022-08-19T15:22:50.374Z,96209.13
2022-08-19T15:27:54.886Z,96208.34
2022-08-19T15:32:59.781Z,96203.84
2022-08-19T15:38:02.668Z,96203.81
2022-08-19T15:43:06.977Z,96206.88
2022-08-19T15:48:09.801Z,96215.59
2022-08-19T15:53:12.822Z,96212.75
2022-08-19T15:58:34.467Z,96211.09
2022-08-19T16:03:54.758Z,96205.38
2022-08-19T16:08:59.430Z,96200.72
2022-08-19T16:14:04.030Z,96200.03
2022-08-19T16:19:10.611Z,96200.31
2022-08-19T16:24:17.654Z,96202.25
2022-08-19T16:29:34.675Z,96201.00
2022-08-19T16:34:43.069Z,96202.63
2022-08-19T16:39:45.962Z,96203.53
2022-08-19T16:44:50.121Z,96211.38
2022-08-19T16:49:55.455Z,96214.53
2022-08-19T16:54:58.374Z,96219.88
2022-08-19T17:00:08.253Z,96206.94
2022-08-19T17:05:11.343Z,96200.53
2022-08-19T17:10:14.173Z,96204.56
2022-08-19T17:15:18.392Z,96203.44
2022-08-19T17:20:21.262Z,96213.31
2022-08-19T17:25:24.271Z,96209.47
2022-08-19T17:30:28.697Z,96221.03
2022-08-19T17:35:32.551Z,96217.97
2022-08-19T17:40:35.657Z,96212.31
2022-08-19T17:45:42.156Z,96213.38
2022-08-19T17:50:45.122Z,96226.13
2022-08-19T17:55:50.689Z,96217.41
2022-08-19T18:00:55.466Z,96214.13
2022-08-19T18:05:58.581Z,96229.13
2022-08-19T18:11:01.673Z,96221.03
2022-08-19T18:16:08.921Z,96228.38
2022-08-19T18:21:12.273Z,96243.25
2022-08-19T18:26:15.080Z,96250.78
2022-08-19T18:31:19.386Z,96249.38
2022-08-19T18:36:50.040Z,96248.38
2022-08-19T18:42:02.961Z,96253.41
2022-08-19T18:47:24.573Z,96256.84
2022-08-19T18:52:27.329Z,96269.25
2022-08-19T18:57:30.285Z,96269.38
2022-08-19T19:02:38.937Z,96270.16
2022-08-19T19:07:42.841Z,96271.31
2022-08-19T19:12:45.853Z,96273.13
2022-08-19T19:17:50.041Z,96281.50
2022-08-19T19:22:53.691Z,96300.81
2022-08-19T19:28:00.970Z,96302.19
2022-08-19T19:33:05.435Z,96288.22
2022-08-19T19:38:08.251Z,96316.25
2022-08-19T19:43:11.041Z,96318.28
2022-08-19T19:48:16.262Z,96311.41
2022-08-19T19:53:19.073Z,96313.06
2022-08-19T19:58:28.590Z,96323.22
2022-08-19T20:03:33.657Z,96325.22
2022-08-19T20:08:54.463Z,96323.09
2022-08-19T20:13:57.290Z,96318.56
2022-08-19T20:19:02.596Z,96316.47
2022-08-19T20:24:09.324Z,96326.44
2022-08-19T20:29:38.514Z,96329.56
2022-08-19T20:34:37.211Z,96344.53
2022-08-19T20:39:40.144Z,96343.88
2022-08-19T20:44:42.992Z,96337.34
2022-08-19T20:49:47.290Z,96332.94
2022-08-19T20:54:50.294Z,96343.44
2022-08-19T20:59:53.100Z,96338.59
2022-08-19T21:04:59.051Z,96340.53
2022-08-19T21:10:06.800Z,96345.38
2022-08-19T21:15:10.350Z,96342.25
2022-08-19T21:20:14.590Z,96345.50
2022-08-19T21:25:18.063Z,96345.34
2022-08-19T21:30:20.838Z,96344.00
2022-08-19T21:35:25.055Z,96347.28
2022-08-19T21:40:28.445Z,96350.53
2022-08-19T21:45:31.257Z,96353.78
2022-08-19T21:50:35.429Z,96348.69
2022-08-19T21:55:38.307Z,96345.78
2022-08-19T22:00:41.133Z,96349.41
2022-08-19T22:05:45.985Z,96348.41
2022-08-19T22:10:49.666Z,96349.66
2022-08-19T22:15:52.595Z,96356.25
2022-08-19T22:20:56.757Z,96359.72
2022-08-19T22:25:59.614Z,96367.75
2022-08-19T22:31:03.427Z,96360.84
2022-08-19T22:36:08.876Z,96362.09
2022-08-19T22:41:12.600Z,96366.81
2022-08-19T22:46:17.597Z,96360.38
2022-08-19T22:51:39.466Z,96348.59
2022-08-19T22:56:43.359Z,96348.78
2022-08-19T23:01:47.090Z,96340.59
2022-08-19T23:06:52.808Z,96341.41
2022-08-19T23:11:55.869Z,96344.00
2022-08-19T23:16:59.320Z,96343.56
2022-08-19T23:22:05.207Z,96342.09
2022-08-19T23:27:25.335Z,96333.25
2022-08-19T23:32:28.154Z,96334.41
2022-08-19T23:37:32.322Z,96316.63
2022-08-19T23:42:35.294Z,96308.28
2022-08-19T23:47:40.641Z,96307.84
2022-08-19T23:52:47.806Z,96303.38
2022-08-19T23:57:50.928Z,96299.44
